createdAt,value
2022-11-27T00:08:02.691Z,0.00
2022-11-27T00:18:02.569Z,0.00
2022-11-27T00:28:02.984Z,0.00
2022-11-27T00:38:03.095Z,0.00
2022-11-27T00:48:03.256Z,0.00
2022-11-27T00:58:03.294Z,0.00
2022-11-27T01:08:03.605Z,0.00
2022-11-27T01:18:03.630Z,0.00
2022-11-27T01:28:03.986Z,0.00
2022-11-27T01:38:04.024Z,0.00
2022-11-27T01:48:04.453Z,0.00
2022-11-27T01:58:04.480Z,0.00
2022-11-27T02:08:04.928Z,0.00
2022-11-27T02:18:04.986Z,0.00
2022-11-27T02:28:05.300Z,0.00
2022-11-27T02:38:05.330Z,0.00
2022-11-27T02:48:05.675Z,0.00
2022-11-27T02:58:05.696Z,0.00
2022-11-27T03:08:06.040Z,0.00
2022-11-27T03:18:06.062Z,0.00
2022-11-27T03:28:06.309Z,0.00
2022-11-27T03:38:06.321Z,0.00
2022-11-27T03:48:06.679Z,0.00
2022-11-27T03:58:06.698Z,0.00
2022-11-27T04:08:07.044Z,0.00
2022-11-27T04:18:07.069Z,0.00
2022-11-27T04:28:07.417Z,0.00
2022-11-27T04:38:07.449Z,12.00
2022-11-27T04:48:07.796Z,0.00
2022-11-27T04:58:07.820Z,0.00
2022-11-27T05:08:08.170Z,0.00
2022-11-27T05:18:08.195Z,0.00
2022-11-27T05:28:08.683Z,0.00
2022-11-27T05:38:08.499Z,0.00
2022-11-27T05:48:08.795Z,0.00
2022-11-27T05:58:08.814Z,0.00
2022-11-27T06:08:09.164Z,0.00
2022-11-27T06:18:09.197Z,0.00
2022-11-27T06:28:09.538Z,8.00
2022-11-27T06:38:09.570Z,16.00
2022-11-27T06:48:09.908Z,36.00
2022-11-27T06:58:09.905Z,72.00
2022-11-27T07:08:10.442Z,104.00
2022-11-27T07:18:11.221Z,128.00
2022-11-27T07:28:13.616Z,148.00
2022-11-27T07:38:11.611Z,176.00
2022-11-27T07:48:10.842Z,212.00
2022-11-27T07:58:11.072Z,244.00
2022-11-27T08:08:11.406Z,292.00
2022-11-27T08:18:11.425Z,552.00
2022-11-27T08:28:11.753Z,844.00
2022-11-27T08:38:11.780Z,1176.00
2022-11-27T08:48:12.025Z,916.00
2022-11-27T08:58:12.364Z,1304.00
2022-11-27T09:08:12.505Z,1820.00
2022-11-27T09:18:12.512Z,2056.00
2022-11-27T09:28:12.758Z,2264.00
2022-11-27T09:38:12.985Z,2428.00
2022-11-27T09:48:13.233Z,2576.00
2022-11-27T09:58:13.453Z,2684.00
2022-11-27T10:08:13.784Z,2840.00
2022-11-27T10:18:13.904Z,2936.00
2022-11-27T10:28:14.180Z,3036.00
2022-11-27T10:38:14.207Z,3116.00
2022-11-27T10:48:14.433Z,3180.00
2022-11-27T10:58:14.659Z,3240.00
2022-11-27T11:08:15.949Z,3248.00
2022-11-27T11:18:14.968Z,3308.00
2022-11-27T11:28:15.197Z,3352.00
2022-11-27T11:38:15.520Z,2868.00
2022-11-27T11:48:15.664Z,1988.00
2022-11-27T11:58:15.711Z,2168.00
2022-11-27T12:08:15.825Z,2680.00
2022-11-27T12:18:15.896Z,1396.00
2022-11-27T12:28:16.001Z,1180.00
2022-11-27T12:38:16.007Z,904.00
2022-11-27T12:48:16.257Z,956.00
2022-11-27T12:58:16.566Z,1948.00
2022-11-27T13:08:16.625Z,956.00
2022-11-27T13:18:17.012Z,1188.00
2022-11-27T13:28:17.567Z,2188.00
2022-11-27T13:38:17.181Z,2056.00
2022-11-27T13:48:17.668Z,980.00
2022-11-27T13:58:17.569Z,424.00
2022-11-27T14:08:19.892Z,336.00
2022-11-27T14:18:17.929Z,312.00
2022-11-27T14:28:18.224Z,312.00
2022-11-27T14:38:18.256Z,312.00
2022-11-27T14:48:18.511Z,208.00
2022-11-27T14:58:18.727Z,124.00
2022-11-27T15:08:19.057Z,96.00
2022-11-27T15:18:19.111Z,60.00
2022-11-27T15:28:19.671Z,24.00
2022-11-27T15:38:19.610Z,12.00
2022-11-27T15:48:19.710Z,4.00
2022-11-27T15:58:19.847Z,0.00
2022-11-27T16:08:19.974Z,0.00
2022-11-27T16:18:20.001Z,0.00
2022-11-27T16:28:20.411Z,0.00
2022-11-27T16:38:20.608Z,0.00
2022-11-27T16:48:21.959Z,0.00
2022-11-27T16:58:21.133Z,0.00
2022-11-27T17:08:21.070Z,0.00
2022-11-27T17:18:21.118Z,0.00
2022-11-27T17:28:21.636Z,0.00
2022-11-27T17:38:22.601Z,0.00
2022-11-27T17:48:22.063Z,0.00
2022-11-27T17:58:22.222Z,0.00
2022-11-27T18:08:22.407Z,0.00
2022-11-27T18:18:22.302Z,0.00
2022-11-27T18:28:22.805Z,0.00
2022-11-27T18:38:22.957Z,0.00
2022-11-27T18:48:25.123Z,0.00
2022-11-27T18:58:23.034Z,0.00
2022-11-27T19:08:23.516Z,0.00
2022-11-27T19:18:24.363Z,0.00
2022-11-27T19:28:23.850Z,0.00
2022-11-27T19:38:23.802Z,0.00
2022-11-27T19:48:24.127Z,0.00
2022-11-27T19:58:23.848Z,0.00
2022-11-27T20:08:24.586Z,0.00
2022-11-27T20:18:24.548Z,0.00
2022-11-27T20:28:24.728Z,0.00
2022-11-27T20:38:24.889Z,0.00
2022-11-27T20:48:32.230Z,0.00
2022-11-27T20:58:25.833Z,0.00
2022-11-27T21:08:25.952Z,0.00
2022-11-27T21:18:25.436Z,0.00
2022-11-27T21:28:25.484Z,0.00
2022-11-27T21:38:25.511Z,0.00
2022-11-27T21:48:25.860Z,0.00
2022-11-27T21:58:25.880Z,0.00
